sensor_id;sensor_type;location;lat;lon;timestamp;pressure;altitude;pressure_sealevel;temperature;humidity
12775;BME280;6451;42.630;23.382;2022-08-25T00:01:29;94332.56;;;20.23;100.00
12775;BME280;6451;42.630;23.382;2022-08-25T00:03:57;94333.81;;;20.19;100.00
12775;BME280;6451;42.630;23.382;2022-08-25T00:06:24;94341.25;;;20.22;100.00
12775;BME280;6451;42.630;23.382;2022-08-25T00:08:51;94345.91;;;20.28;100.00
12775;BME280;6451;42.630;23.382;2022-08-25T00:11:21;94336.03;;;20.35;100.00
12775;BME280;6451;42.630;23.382;2022-08-25T00:13:52;94343.81;;;20.43;100.00
12775;BME280;6451;42.630;23.382;2022-08-25T00:16:20;94333.22;;;20.38;100.00
12775;BME280;6451;42.630;23.382;2022-08-25T00:18:53;94309.44;;;20.14;100.00
12775;BME280;6451;42.630;23.382;2022-08-25T00:21:22;94328.53;;;20.35;100.00
12775;BME280;6451;42.630;23.382;2022-08-25T00:23:49;94331.22;;;20.46;100.00
12775;BME280;6451;42.630;23.382;2022-08-25T00:26:17;94327.75;;;20.35;100.00
12775;BME280;6451;42.630;23.382;2022-08-25T00:28:44;94313.00;;;20.14;100.00
12775;BME280;6451;42.630;23.382;2022-08-25T00:31:13;94315.72;;;20.18;100.00
12775;BME280;6451;42.630;23.382;2022-08-25T00:33:41;94335.31;;;20.27;100.00
12775;BME280;6451;42.630;23.382;2022-08-25T00:36:10;94319.69;;;20.17;100.00
12775;BME280;6451;42.630;23.382;2022-08-25T00:38:37;94269.88;;;19.93;100.00
12775;BME280;6451;42.630;23.382;2022-08-25T00:41:04;94323.16;;;20.21;100.00
12775;BME280;6451;42.630;23.382;2022-08-25T00:43:42;94346.34;;;20.27;100.00
12775;BME280;6451;42.630;23.382;2022-08-25T00:46:11;94342.75;;;20.30;100.00
12775;BME280;6451;42.630;23.382;2022-08-25T00:48:39;94320.16;;;20.05;100.00
12775;BME280;6451;42.630;23.382;2022-08-25T00:51:10;94348.25;;;20.30;100.00
12775;BME280;6451;42.630;23.382;2022-08-25T00:53:40;94348.66;;;20.32;100.00
12775;BME280;6451;42.630;23.382;2022-08-25T00:56:08;94340.69;;;20.45;100.00
12775;BME280;6451;42.630;23.382;2022-08-25T00:58:37;94301.31;;;20.41;100.00
12775;BME280;6451;42.630;23.382;2022-08-25T01:01:04;94327.88;;;20.62;100.00
12775;BME280;6451;42.630;23.382;2022-08-25T01:03:32;94316.41;;;20.67;100.00
12775;BME280;6451;42.630;23.382;2022-08-25T01:06:00;94312.47;;;20.68;100.00
12775;BME280;6451;42.630;23.382;2022-08-25T01:08:31;94308.94;;;20.67;100.00
12775;BME280;6451;42.630;23.382;2022-08-25T01:11:01;94311.31;;;20.65;100.00
12775;BME280;6451;42.630;23.382;2022-08-25T01:13:33;94311.28;;;20.69;100.00
12775;BME280;6451;42.630;23.382;2022-08-25T01:16:01;94313.00;;;20.56;100.00
12775;BME280;6451;42.630;23.382;2022-08-25T01:18:41;94303.47;;;20.64;100.00
12775;BME280;6451;42.630;23.382;2022-08-25T01:21:10;94301.72;;;20.77;100.00
12775;BME280;6451;42.630;23.382;2022-08-25T01:23:37;94295.75;;;20.82;100.00
12775;BME280;6451;42.630;23.382;2022-08-25T01:26:07;94283.66;;;20.72;100.00
12775;BME280;6451;42.630;23.382;2022-08-25T01:28:36;94261.69;;;20.65;100.00
12775;BME280;6451;42.630;23.382;2022-08-25T01:31:23;94294.97;;;20.81;100.00
12775;BME280;6451;42.630;23.382;2022-08-25T01:33:50;94303.63;;;20.83;100.00
12775;BME280;6451;42.630;23.382;2022-08-25T01:36:19;94289.53;;;20.74;100.00
12775;BME280;6451;42.630;23.382;2022-08-25T01:38:46;94295.47;;;20.73;100.00
12775;BME280;6451;42.630;23.382;2022-08-25T01:41:15;94303.25;;;20.81;100.00
12775;BME280;6451;42.630;23.382;2022-08-25T01:43:42;94302.28;;;20.61;100.00
12775;BME280;6451;42.630;23.382;2022-08-25T01:46:10;94304.31;;;20.57;100.00
12775;BME280;6451;42.630;23.382;2022-08-25T01:48:37;94300.88;;;20.49;100.00
12775;BME280;6451;42.630;23.382;2022-08-25T01:51:04;94299.72;;;20.43;100.00
12775;BME280;6451;42.630;23.382;2022-08-25T01:53:33;94305.97;;;20.51;100.00
12775;BME280;6451;42.630;23.382;2022-08-25T01:56:07;94304.97;;;20.68;100.00
12775;BME280;6451;42.630;23.382;2022-08-25T01:58:37;94291.53;;;20.74;100.00
12775;BME280;6451;42.630;23.382;2022-08-25T02:01:07;94291.44;;;20.81;100.00
12775;BME280;6451;42.630;23.382;2022-08-25T02:03:36;94289.88;;;20.80;100.00
12775;BME280;6451;42.630;23.382;2022-08-25T02:06:04;94276.94;;;20.73;100.00
12775;BME280;6451;42.630;23.382;2022-08-25T02:08:33;94291.34;;;20.88;100.00
12775;BME280;6451;42.630;23.382;2022-08-25T02:11:02;94286.63;;;20.89;100.00
12775;BME280;6451;42.630;23.382;2022-08-25T02:13:29;94285.06;;;20.88;100.00
12775;BME280;6451;42.630;23.382;2022-08-25T02:15:58;94283.41;;;20.94;100.00
12775;BME280;6451;42.630;23.382;2022-08-25T02:18:26;94258.78;;;20.76;100.00
12775;BME280;6451;42.630;23.382;2022-08-25T02:20:53;94264.63;;;20.81;100.00
12775;BME280;6451;42.630;23.382;2022-08-25T02:23:20;94256.09;;;20.72;100.00
12775;BME280;6451;42.630;23.382;2022-08-25T02:25:48;94284.56;;;20.62;100.00
12775;BME280;6451;42.630;23.382;2022-08-25T02:28:16;94290.16;;;20.17;100.00
12775;BME280;6451;42.630;23.382;2022-08-25T02:30:43;94277.34;;;19.96;100.00
12775;BME280;6451;42.630;23.382;2022-08-25T02:33:10;94289.44;;;20.10;100.00
12775;BME280;6451;42.630;23.382;2022-08-25T02:35:37;94276.69;;;20.23;100.00
12775;BME280;6451;42.630;23.382;2022-08-25T02:38:05;94284.88;;;20.30;100.00
12775;BME280;6451;42.630;23.382;2022-08-25T02:40:32;94287.84;;;20.09;100.00
12775;BME280;6451;42.630;23.382;2022-08-25T02:43:00;94295.44;;;19.97;100.00
12775;BME280;6451;42.630;23.382;2022-08-25T02:45:27;94291.72;;;19.70;100.00
12775;BME280;6451;42.630;23.382;2022-08-25T02:47:54;94304.19;;;19.85;100.00
12775;BME280;6451;42.630;23.382;2022-08-25T02:50:21;94303.03;;;19.86;100.00
12775;BME280;6451;42.630;23.382;2022-08-25T02:52:49;94309.31;;;19.87;100.00
12775;BME280;6451;42.630;23.382;2022-08-25T02:55:17;94286.63;;;19.72;100.00
12775;BME280;6451;42.630;23.382;2022-08-25T02:57:44;94304.59;;;19.87;100.00
12775;BME280;6451;42.630;23.382;2022-08-25T03:00:15;94297.56;;;19.79;100.00
12775;BME280;6451;42.630;23.382;2022-08-25T03:02:43;94304.91;;;19.96;100.00
12775;BME280;6451;42.630;23.382;2022-08-25T03:05:12;94311.19;;;19.97;100.00
12775;BME280;6451;42.630;23.382;2022-08-25T03:07:39;94319.13;;;19.88;100.00
12775;BME280;6451;42.630;23.382;2022-08-25T03:10:11;94310.88;;;19.84;100.00
12775;BME280;6451;42.630;23.382;2022-08-25T03:12:38;94312.09;;;19.83;100.00
12775;BME280;6451;42.630;23.382;2022-08-25T03:15:07;94308.13;;;19.84;100.00
12775;BME280;6451;42.630;23.382;2022-08-25T03:17:35;94296.28;;;19.91;100.00
12775;BME280;6451;42.630;23.382;2022-08-25T03:20:03;94307.75;;;19.82;100.00
12775;BME280;6451;42.630;23.382;2022-08-25T03:22:31;94310.56;;;19.79;100.00
12775;BME280;6451;42.630;23.382;2022-08-25T03:24:58;94313.38;;;19.71;100.00
12775;BME280;6451;42.630;23.382;2022-08-25T03:27:45;94312.91;;;19.77;100.00
12775;BME280;6451;42.630;23.382;2022-08-25T03:30:11;94317.63;;;19.76;100.00
12775;BME280;6451;42.630;23.382;2022-08-25T03:32:40;94319.59;;;19.79;100.00
12775;BME280;6451;42.630;23.382;2022-08-25T03:35:07;94301.13;;;19.76;100.00
12775;BME280;6451;42.630;23.382;2022-08-25T03:37:36;94316.09;;;19.75;100.00
12775;BME280;6451;42.630;23.382;2022-08-25T03:40:05;94309.84;;;19.67;100.00
12775;BME280;6451;42.630;23.382;2022-08-25T03:42:32;94299.97;;;19.70;100.00
12775;BME280;6451;42.630;23.382;2022-08-25T03:45:00;94309.75;;;19.78;100.00
12775;BME280;6451;42.630;23.382;2022-08-25T03:47:27;94305.84;;;19.79;100.00
12775;BME280;6451;42.630;23.382;2022-08-25T03:49:56;94268.97;;;19.62;100.00
12775;BME280;6451;42.630;23.382;2022-08-25T03:52:23;94297.00;;;19.98;100.00
12775;BME280;6451;42.630;23.382;2022-08-25T03:54:50;94296.56;;;20.04;100.00
12775;BME280;6451;42.630;23.382;2022-08-25T03:57:16;94257.84;;;19.80;100.00
12775;BME280;6451;42.630;23.382;2022-08-25T03:59:45;94303.28;;;19.99;100.00
12775;BME280;6451;42.630;23.382;2022-08-25T04:02:11;94307.13;;;20.09;100.00
12775;BME280;6451;42.630;23.382;2022-08-25T04:04:38;94302.38;;;20.13;100.00
12775;BME280;6451;42.630;23.382;2022-08-25T04:07:07;94305.19;;;20.06;100.00
12775;BME280;6451;42.630;23.382;2022-08-25T04:09:33;94311.53;;;20.03;100.00
12775;BME280;6451;42.630;23.382;2022-08-25T04:12:02;94309.03;;;20.15;100.00
12775;BME280;6451;42.630;23.382;2022-08-25T04:14:29;94275.72;;;20.03;100.00
12775;BME280;6451;42.630;23.382;2022-08-25T04:16:58;94305.44;;;20.22;100.00
12775;BME280;6451;42.630;23.382;2022-08-25T04:19:24;94309.31;;;20.28;100.00
12775;BME280;6451;42.630;23.382;2022-08-25T04:21:51;94296.03;;;20.16;100.00
12775;BME280;6451;42.630;23.382;2022-08-25T04:24:20;94293.63;;;20.21;100.00
12775;BME280;6451;42.630;23.382;2022-08-25T04:26:49;94286.91;;;20.26;100.00
12775;BME280;6451;42.630;23.382;2022-08-25T04:29:18;94260.41;;;20.02;100.00
12775;BME280;6451;42.630;23.382;2022-08-25T04:31:47;94290.47;;;20.23;100.00
12775;BME280;6451;42.630;23.382;2022-08-25T04:34:15;94282.97;;;20.27;100.00
12775;BME280;6451;42.630;23.382;2022-08-25T04:36:42;94275.41;;;20.31;100.00
12775;BME280;6451;42.630;23.382;2022-08-25T04:39:10;94278.16;;;20.35;100.00
12775;BME280;6451;42.630;23.382;2022-08-25T04:41:38;94249.13;;;20.23;100.00
12775;BME280;6451;42.630;23.382;2022-08-25T04:44:05;94286.75;;;20.40;100.00
12775;BME280;6451;42.630;23.382;2022-08-25T04:46:33;94298.88;;;20.50;100.00
12775;BME280;6451;42.630;23.382;2022-08-25T04:49:01;94297.75;;;20.47;100.00
12775;BME280;6451;42.630;23.382;2022-08-25T04:51:32;94283.22;;;20.40;100.00
12775;BME280;6451;42.630;23.382;2022-08-25T04:54:01;94300.25;;;20.69;100.00
12775;BME280;6451;42.630;23.382;2022-08-25T04:56:31;94307.22;;;20.77;100.00
12775;BME280;6451;42.630;23.382;2022-08-25T04:59:03;94280.22;;;20.65;100.00
12775;BME280;6451;42.630;23.382;2022-08-25T05:01:30;94305.75;;;20.69;100.00
12775;BME280;6451;42.630;23.382;2022-08-25T05:03:58;94242.59;;;20.10;100.00
12775;BME280;6451;42.630;23.382;2022-08-25T05:06:27;94294.81;;;20.62;100.00
12775;BME280;6451;42.630;23.382;2022-08-25T05:08:55;94275.69;;;20.47;100.00
12775;BME280;6451;42.630;23.382;2022-08-25T05:11:23;94281.97;;;20.48;100.00
12775;BME280;6451;42.630;23.382;2022-08-25T05:13:52;94296.69;;;20.68;100.00
12775;BME280;6451;42.630;23.382;2022-08-25T05:16:23;94154.69;;;19.88;100.00
12775;BME280;6451;42.630;23.382;2022-08-25T05:18:51;94277.69;;;20.77;100.00
12775;BME280;6451;42.630;23.382;2022-08-25T05:21:21;94268.22;;;20.78;100.00
12775;BME280;6451;42.630;23.382;2022-08-25T05:23:48;94258.50;;;20.70;100.00
12775;BME280;6451;42.630;23.382;2022-08-25T05:26:18;94276.44;;;20.82;100.00
12775;BME280;6451;42.630;23.382;2022-08-25T05:28:46;94272.41;;;20.90;100.00
12775;BME280;6451;42.630;23.382;2022-08-25T05:31:14;94243.13;;;20.69;100.00
12775;BME280;6451;42.630;23.382;2022-08-25T05:33:44;94263.69;;;20.95;100.00
12775;BME280;6451;42.630;23.382;2022-08-25T05:36:13;94275.50;;;20.96;100.00
12775;BME280;6451;42.630;23.382;2022-08-25T05:38:40;94279.84;;;20.93;100.00
12775;BME280;6451;42.630;23.382;2022-08-25T05:41:09;94253.25;;;21.06;100.00
12775;BME280;6451;42.630;23.382;2022-08-25T05:43:38;94255.81;;;21.21;100.00
12775;BME280;6451;42.630;23.382;2022-08-25T05:46:06;94276.50;;;21.40;100.00
12775;BME280;6451;42.630;23.382;2022-08-25T05:48:34;94252.44;;;21.40;100.00
12775;BME280;6451;42.630;23.382;2022-08-25T05:51:05;94274.56;;;21.36;100.00
12775;BME280;6451;42.630;23.382;2022-08-25T05:53:32;94267.78;;;21.41;100.00
12775;BME280;6451;42.630;23.382;2022-08-25T05:56:00;94273.59;;;21.47;100.00
12775;BME280;6451;42.630;23.382;2022-08-25T05:58:28;94260.97;;;21.49;100.00
12775;BME280;6451;42.630;23.382;2022-08-25T06:00:57;94271.69;;;21.71;100.00
12775;BME280;6451;42.630;23.382;2022-08-25T06:03:46;94268.66;;;21.61;100.00
12775;BME280;6451;42.630;23.382;2022-08-25T06:06:15;94267.59;;;21.55;100.00
12775;BME280;6451;42.630;23.382;2022-08-25T06:08:42;94260.41;;;21.34;100.00
12775;BME280;6451;42.630;23.382;2022-08-25T06:11:09;94275.09;;;21.55;100.00
12775;BME280;6451;42.630;23.382;2022-08-25T06:13:37;94226.50;;;21.34;100.00
12775;BME280;6451;42.630;23.382;2022-08-25T06:16:04;94263.91;;;21.62;100.00
12775;BME280;6451;42.630;23.382;2022-08-25T06:18:31;94272.47;;;21.71;100.00
12775;BME280;6451;42.630;23.382;2022-08-25T06:21:06;94267.84;;;21.88;100.00
12775;BME280;6451;42.630;23.382;2022-08-25T06:23:35;94267.75;;;21.91;100.00
12775;BME280;6451;42.630;23.382;2022-08-25T06:26:02;94259.13;;;22.13;100.00
12775;BME280;6451;42.630;23.382;2022-08-25T06:28:29;94251.84;;;22.23;100.00
12775;BME280;6451;42.630;23.382;2022-08-25T06:30:57;94244.28;;;22.03;100.00
12775;BME280;6451;42.630;23.382;2022-08-25T06:33:25;94245.28;;;22.16;100.00
12775;BME280;6451;42.630;23.382;2022-08-25T06:35:52;94250.38;;;22.18;100.00
12775;BME280;6451;42.630;23.382;2022-08-25T06:38:19;94255.25;;;22.30;100.00
12775;BME280;6451;42.630;23.382;2022-08-25T06:40:48;94263.38;;;22.61;100.00
12775;BME280;6451;42.630;23.382;2022-08-25T06:43:16;94270.41;;;22.65;100.00
12775;BME280;6451;42.630;23.382;2022-08-25T06:45:44;94262.31;;;22.55;100.00
12775;BME280;6451;42.630;23.382;2022-08-25T06:48:12;94260.25;;;22.59;100.00
12775;BME280;6451;42.630;23.382;2022-08-25T06:50:39;94271.19;;;22.66;100.00
12775;BME280;6451;42.630;23.382;2022-08-25T06:53:06;94266.44;;;22.66;100.00
12775;BME280;6451;42.630;23.382;2022-08-25T06:55:33;94260.78;;;22.93;100.00
12775;BME280;6451;42.630;23.382;2022-08-25T06:58:03;94265.16;;;23.11;100.00
12775;BME280;6451;42.630;23.382;2022-08-25T07:00:32;94264.56;;;23.19;100.00
12775;BME280;6451;42.630;23.382;2022-08-25T07:02:59;94255.66;;;23.28;100.00
12775;BME280;6451;42.630;23.382;2022-08-25T07:05:26;94264.03;;;23.61;100.00
12775;BME280;6451;42.630;23.382;2022-08-25T07:07:54;94249.91;;;23.55;100.00
12775;BME280;6451;42.630;23.382;2022-08-25T07:10:21;94259.06;;;23.36;100.00
12775;BME280;6451;42.630;23.382;2022-08-25T07:12:48;94264.41;;;23.63;100.00
12775;BME280;6451;42.630;23.382;2022-08-25T07:15:16;94254.34;;;23.69;100.00
12775;BME280;6451;42.630;23.382;2022-08-25T07:17:43;94252.91;;;23.44;100.00
12775;BME280;6451;42.630;23.382;2022-08-25T07:20:10;94257.69;;;23.44;100.00
12775;BME280;6451;42.630;23.382;2022-08-25T07:22:37;94258.91;;;23.43;100.00
12775;BME280;6451;42.630;23.382;2022-08-25T07:25:05;94267.25;;;23.23;100.00
12775;BME280;6451;42.630;23.382;2022-08-25T07:27:33;94267.66;;;23.21;100.00
12775;BME280;6451;42.630;23.382;2022-08-25T07:30:00;94259.94;;;23.49;100.00
12775;BME280;6451;42.630;23.382;2022-08-25T07:32:29;94266.75;;;23.44;100.00
12775;BME280;6451;42.630;23.382;2022-08-25T07:34:57;94253.22;;;23.82;100.00
12775;BME280;6451;42.630;23.382;2022-08-25T07:37:42;94255.56;;;24.00;100.00
12775;BME280;6451;42.630;23.382;2022-08-25T07:40:12;94225.94;;;23.81;100.00
12775;BME280;6451;42.630;23.382;2022-08-25T07:42:39;94244.78;;;24.19;100.00
12775;BME280;6451;42.630;23.382;2022-08-25T07:45:08;94253.31;;;24.57;100.00
12775;BME280;6451;42.630;23.382;2022-08-25T07:47:37;94247.69;;;24.44;100.00
12775;BME280;6451;42.630;23.382;2022-08-25T07:50:07;94256.88;;;24.57;100.00
12775;BME280;6451;42.630;23.382;2022-08-25T07:52:34;94246.88;;;24.31;100.00
12775;BME280;6451;42.630;23.382;2022-08-25T07:55:01;94240.41;;;24.50;100.00
12775;BME280;6451;42.630;23.382;2022-08-25T07:57:28;94261.50;;;24.48;100.00
12775;BME280;6451;42.630;23.382;2022-08-25T07:59:56;94259.38;;;24.81;100.00
12775;BME280;6451;42.630;23.382;2022-08-25T08:02:25;94248.81;;;25.05;100.00
12775;BME280;6451;42.630;23.382;2022-08-25T08:04:53;94248.53;;;24.99;100.00
12775;BME280;6451;42.630;23.382;2022-08-25T08:07:22;94251.41;;;25.50;100.00
12775;BME280;6451;42.630;23.382;2022-08-25T08:09:49;94256.72;;;25.44;100.00
12775;BME280;6451;42.630;23.382;2022-08-25T08:12:17;94247.38;;;24.71;100.00
12775;BME280;6451;42.630;23.382;2022-08-25T08:14:44;94258.75;;;24.60;100.00
12775;BME280;6451;42.630;23.382;2022-08-25T08:17:11;94252.19;;;24.54;100.00
12775;BME280;6451;42.630;23.382;2022-08-25T08:19:38;94254.16;;;24.70;100.00
12775;BME280;6451;42.630;23.382;2022-08-25T08:22:07;94234.28;;;24.84;100.00
12775;BME280;6451;42.630;23.382;2022-08-25T08:24:36;94231.09;;;24.99;100.00
12775;BME280;6451;42.630;23.382;2022-08-25T08:27:05;94234.72;;;25.12;100.00
12775;BME280;6451;42.630;23.382;2022-08-25T08:29:33;94219.66;;;24.96;100.00
12775;BME280;6451;42.630;23.382;2022-08-25T08:32:01;94225.19;;;25.38;100.00
12775;BME280;6451;42.630;23.382;2022-08-25T08:34:28;94239.50;;;25.49;100.00
12775;BME280;6451;42.630;23.382;2022-08-25T08:36:55;94230.38;;;25.36;100.00
12775;BME280;6451;42.630;23.382;2022-08-25T08:39:24;94223.25;;;25.61;100.00
12775;BME280;6451;42.630;23.382;2022-08-25T08:42:02;94217.59;;;25.64;100.00
12775;BME280;6451;42.630;23.382;2022-08-25T08:45:06;94225.38;;;25.95;100.00
12775;BME280;6451;42.630;23.382;2022-08-25T08:47:45;94192.63;;;25.26;100.00
12775;BME280;6451;42.630;23.382;2022-08-25T08:50:25;94184.72;;;25.12;100.00
12775;BME280;6451;42.630;23.382;2022-08-25T08:52:59;94202.72;;;25.20;100.00
12775;BME280;6451;42.630;23.382;2022-08-25T08:55:33;94222.06;;;25.87;100.00
12775;BME280;6451;42.630;23.382;2022-08-25T08:58:05;94222.22;;;26.05;100.00
12775;BME280;6451;42.630;23.382;2022-08-25T09:00:38;94204.72;;;25.58;100.00
12775;BME280;6451;42.630;23.382;2022-08-25T09:03:22;94221.50;;;25.41;100.00
12775;BME280;6451;42.630;23.382;2022-08-25T09:05:56;94222.81;;;25.88;100.00
12775;BME280;6451;42.630;23.382;2022-08-25T09:08:24;94219.81;;;25.82;100.00
12775;BME280;6451;42.630;23.382;2022-08-25T09:11:01;94170.81;;;25.37;100.00
12775;BME280;6451;42.630;23.382;2022-08-25T09:13:46;94230.28;;;25.27;100.00
12775;BME280;6451;42.630;23.382;2022-08-25T09:16:24;94235.41;;;25.16;100.00
12775;BME280;6451;42.630;23.382;2022-08-25T09:19:21;94219.63;;;25.26;100.00
12775;BME280;6451;42.630;23.382;2022-08-25T09:21:55;94228.59;;;25.68;100.00
12775;BME280;6451;42.630;23.382;2022-08-25T09:24:35;94217.41;;;25.71;100.00
12775;BME280;6451;42.630;23.382;2022-08-25T09:27:14;94218.38;;;25.65;100.00
12775;BME280;6451;42.630;23.382;2022-08-25T09:30:03;94208.50;;;25.64;100.00
12775;BME280;6451;42.630;23.382;2022-08-25T09:32:34;94213.03;;;25.83;100.00
12775;BME280;6451;42.630;23.382;2022-08-25T09:35:04;94221.50;;;25.41;100.00
12775;BME280;6451;42.630;23.382;2022-08-25T09:37:31;94214.59;;;25.59;100.00
12775;BME280;6451;42.630;23.382;2022-08-25T09:39:58;94212.72;;;25.81;100.00
12775;BME280;6451;42.630;23.382;2022-08-25T09:42:48;94206.84;;;25.79;100.00
12775;BME280;6451;42.630;23.382;2022-08-25T09:45:30;94190.66;;;25.99;100.00
12775;BME280;6451;42.630;23.382;2022-08-25T09:47:57;94202.19;;;26.11;100.00
12775;BME280;6451;42.630;23.382;2022-08-25T09:50:29;94201.91;;;26.30;100.00
12775;BME280;6451;42.630;23.382;2022-08-25T09:53:10;94194.44;;;26.40;100.00
12775;BME280;6451;42.630;23.382;2022-08-25T09:55:40;94214.16;;;26.20;100.00
12775;BME280;6451;42.630;23.382;2022-08-25T09:58:19;94166.13;;;25.60;100.00
12775;BME280;6451;42.630;23.382;2022-08-25T10:01:00;94216.34;;;26.03;100.00
12775;BME280;6451;42.630;23.382;2022-08-25T10:03:28;94225.63;;;25.75;100.00
12775;BME280;6451;42.630;23.382;2022-08-25T10:06:02;94196.97;;;25.40;100.00
12775;BME280;6451;42.630;23.382;2022-08-25T10:08:33;94204.72;;;25.58;100.00
12775;BME280;6451;42.630;23.382;2022-08-25T10:11:03;94213.34;;;25.98;100.00
12775;BME280;6451;42.630;23.382;2022-08-25T10:13:38;94212.66;;;26.06;100.00
12775;BME280;6451;42.630;23.382;2022-08-25T10:16:10;94200.66;;;26.10;100.00
12775;BME280;6451;42.630;23.382;2022-08-25T10:18:38;94182.56;;;25.92;100.00
12775;BME280;6451;42.630;23.382;2022-08-25T10:21:11;94210.84;;;26.13;100.00
12775;BME280;6451;42.630;23.382;2022-08-25T10:23:42;94203.66;;;26.02;100.00
12775;BME280;6451;42.630;23.382;2022-08-25T10:26:27;94202.69;;;25.84;100.00
12775;BME280;6451;42.630;23.382;2022-08-25T10:29:11;94208.06;;;25.78;100.00
12775;BME280;6451;42.630;23.382;2022-08-25T10:31:49;94200.03;;;25.67;100.00
12775;BME280;6451;42.630;23.382;2022-08-25T10:34:33;94179.50;;;25.77;100.00
12775;BME280;6451;42.630;23.382;2022-08-25T10:37:12;94167.44;;;25.68;100.00
12775;BME280;6451;42.630;23.382;2022-08-25T10:39:44;94188.00;;;26.30;100.00
12775;BME280;6451;42.630;23.382;2022-08-25T10:42:20;94203.38;;;25.62;100.00
12775;BME280;6451;42.630;23.382;2022-08-25T10:45:18;94184.16;;;25.42;100.00
12775;BME280;6451;42.630;23.382;2022-08-25T10:51:03;94175.09;;;24.75;100.00
12775;BME280;6451;42.630;23.382;2022-08-25T10:53:44;94183.34;;;24.91;100.00
12775;BME280;6451;42.630;23.382;2022-08-25T10:56:17;94185.41;;;25.16;100.00
12775;BME280;6451;42.630;23.382;2022-08-25T11:01:59;94170.81;;;25.75;100.00
12775;BME280;6451;42.630;23.382;2022-08-25T11:04:34;94171.47;;;26.14;100.00
12775;BME280;6451;42.630;23.382;2022-08-25T11:07:06;94168.81;;;26.11;100.00
12775;BME280;6451;42.630;23.382;2022-08-25T11:09:37;94152.88;;;26.24;100.00
12775;BME280;6451;42.630;23.382;2022-08-25T11:12:09;94162.41;;;26.57;100.00
12775;BME280;6451;42.630;23.382;2022-08-25T11:14:45;94158.09;;;26.87;99.28
12775;BME280;6451;42.630;23.382;2022-08-25T11:17:17;94149.16;;;26.93;98.87
12775;BME280;6451;42.630;23.382;2022-08-25T11:19:48;94157.00;;;27.07;99.01
12775;BME280;6451;42.630;23.382;2022-08-25T11:22:19;94153.50;;;27.25;96.98
12775;BME280;6451;42.630;23.382;2022-08-25T11:24:58;94151.94;;;27.14;93.11
12775;BME280;6451;42.630;23.382;2022-08-25T11:27:33;94142.53;;;27.30;93.69
12775;BME280;6451;42.630;23.382;2022-08-25T11:30:05;94134.81;;;27.03;93.69
12775;BME280;6451;42.630;23.382;2022-08-25T11:32:35;94131.94;;;26.54;96.87
12775;BME280;6451;42.630;23.382;2022-08-25T11:35:05;94134.31;;;26.65;100.00
12775;BME280;6451;42.630;23.382;2022-08-25T11:37:33;94125.56;;;26.31;100.00
12775;BME280;6451;42.630;23.382;2022-08-25T11:40:18;94135.97;;;26.18;100.00
12775;BME280;6451;42.630;23.382;2022-08-25T11:42:55;94141.03;;;25.98;100.00
12775;BME280;6451;42.630;23.382;2022-08-25T11:45:43;94131.91;;;25.63;100.00
12775;BME280;6451;42.630;23.382;2022-08-25T11:48:25;94133.31;;;25.80;100.00
12775;BME280;6451;42.630;23.382;2022-08-25T11:50:57;94125.97;;;25.86;100.00
12775;BME280;6451;42.630;23.382;2022-08-25T11:53:26;94127.75;;;25.93;100.00
12775;BME280;6451;42.630;23.382;2022-08-25T11:55:55;94115.84;;;26.14;100.00
12775;BME280;6451;42.630;23.382;2022-08-25T11:58:42;94121.03;;;26.25;100.00
12775;BME280;6451;42.630;23.382;2022-08-25T12:04:34;94120.50;;;25.95;100.00
12775;BME280;6451;42.630;23.382;2022-08-25T12:07:17;94117.41;;;26.15;99.49
12775;BME280;6451;42.630;23.382;2022-08-25T12:10:08;94121.31;;;25.83;100.00
12775;BME280;6451;42.630;23.382;2022-08-25T12:12:36;94118.28;;;25.90;100.00
12775;BME280;6451;42.630;23.382;2022-08-25T12:15:21;94109.06;;;25.93;100.00
12775;BME280;6451;42.630;23.382;2022-08-25T12:18:08;94111.50;;;26.13;98.37
12775;BME280;6451;42.630;23.382;2022-08-25T12:21:11;94106.09;;;26.31;98.60
12775;BME280;6451;42.630;23.382;2022-08-25T12:23:40;94119.41;;;26.58;97.84
12775;BME280;6451;42.630;23.382;2022-08-25T12:26:14;94102.16;;;26.42;93.70
12775;BME280;6451;42.630;23.382;2022-08-25T12:28:52;94102.34;;;26.47;92.58
12775;BME280;6451;42.630;23.382;2022-08-25T12:31:35;94118.56;;;26.71;94.06
12775;BME280;6451;42.630;23.382;2022-08-25T12:34:20;94114.28;;;26.79;94.49
12775;BME280;6451;42.630;23.382;2022-08-25T12:36:58;94120.63;;;26.79;92.94
12775;BME280;6451;42.630;23.382;2022-08-25T12:39:33;94107.38;;;26.93;89.93
12775;BME280;6451;42.630;23.382;2022-08-25T12:42:03;94102.88;;;27.17;92.58
12775;BME280;6451;42.630;23.382;2022-08-25T12:44:35;94129.03;;;26.67;90.81
12775;BME280;6451;42.630;23.382;2022-08-25T12:47:24;94118.63;;;26.14;91.89
12775;BME280;6451;42.630;23.382;2022-08-25T12:49:52;94119.28;;;26.18;90.82
12775;BME280;6451;42.630;23.382;2022-08-25T12:52:22;94118.38;;;26.21;91.88
12775;BME280;6451;42.630;23.382;2022-08-25T12:54:54;94112.25;;;26.48;91.92
12775;BME280;6451;42.630;23.382;2022-08-25T12:57:33;94005.66;;;25.86;89.31
12775;BME280;6451;42.630;23.382;2022-08-25T13:00:11;94117.91;;;26.67;90.44
12775;BME280;6451;42.630;23.382;2022-08-25T13:03:15;94117.66;;;26.52;90.21
12775;BME280;6451;42.630;23.382;2022-08-25T13:06:03;94121.56;;;26.54;92.83
12775;BME280;6451;42.630;23.382;2022-08-25T13:11:30;94135.72;;;26.25;94.15
12775;BME280;6451;42.630;23.382;2022-08-25T13:14:06;94120.66;;;26.57;92.78
12775;BME280;6451;42.630;23.382;2022-08-25T13:16:38;94123.47;;;26.67;92.43
12775;BME280;6451;42.630;23.382;2022-08-25T13:19:05;94115.47;;;26.69;91.16
12775;BME280;6451;42.630;23.382;2022-08-25T13:21:36;94117.28;;;26.63;90.81
12775;BME280;6451;42.630;23.382;2022-08-25T13:24:10;94120.31;;;26.77;90.62